Time;durP1;ratioP1;P1;durP2;ratioP2;P2;SDS_P1;SDS_P2;PMS_P1;PMS_P2;Temp;Humidity;BMP_temperature;BMP_pressure;BME280_temperature;BME280_humidity;BME280_pressure;Samples;Min_cycle;Max_cycle;Signal;HPM_P1;HPM_P2
2022/11/22 00:04:29;;;;;;;6.73;4.50;;;;;;;;;;10467511;28;20037;-76
2022/11/22 00:09:29;;;;;;;6.77;3.90;;;;;;;;;;10463869;28;20116;-74
2022/11/22 00:14:30;;;;;;;6.13;4.00;;;;;;;;;;10483735;28;20320;-75
2022/11/22 00:19:30;;;;;;;6.60;4.57;;;;;;;;;;10485576;28;20038;-75
2022/11/22 00:24:31;;;;;;;6.57;4.70;;;;;;;;;;10482961;28;20306;-75
2022/11/22 00:29:31;;;;;;;6.53;4.80;;;;;;;;;;10479246;28;20040;-75
2022/11/22 00:34:31;;;;;;;7.97;4.97;;;;;;;;;;10483285;28;20448;-75
2022/11/22 00:39:32;;;;;;;5.88;5.00;;;;;;;;;;10481408;28;20856;-75
2022/11/22 00:44:32;;;;;;;6.80;4.60;;;;;;;;;;10491097;28;20051;-75
2022/11/22 00:49:33;;;;;;;7.00;5.20;;;;;;;;;;10503795;28;20632;-74
2022/11/22 00:54:33;;;;;;;6.57;5.20;;;;;;;;;;10482002;28;20044;-74
2022/11/22 00:59:33;;;;;;;8.00;5.13;;;;;;;;;;10463440;28;20082;-74
2022/11/22 01:04:34;;;;;;;7.70;5.07;;;;;;;;;;10490894;28;20341;-74
2022/11/22 01:09:34;;;;;;;7.80;4.90;;;;;;;;;;10479347;28;20279;-74
2022/11/22 01:14:34;;;;;;;9.95;5.55;;;;;;;;;;10480563;28;20306;-75
2022/11/22 01:19:35;;;;;;;7.30;4.87;;;;;;;;;;10482516;28;20508;-76
2022/11/22 01:24:35;;;;;;;8.23;5.63;;;;;;;;;;10483038;28;20786;-76
2022/11/22 01:29:36;;;;;;;7.35;5.15;;;;;;;;;;10463134;28;20050;-75
2022/11/22 01:34:36;;;;;;;8.27;5.22;;;;;;;;;;10478426;28;20503;-75
2022/11/22 01:39:36;;;;;;;6.97;4.95;;;;;;;;;;10472093;28;20036;-76
2022/11/22 01:44:41;;;;;;;8.95;4.63;;;;;;;;;;10483002;28;20044;-75
2022/11/22 01:49:47;;;;;;;7.15;4.80;;;;;;;;;;10482808;28;20484;-75
2022/11/22 01:55:06;;;;;;;8.13;4.82;;;;;;;;;;10480072;28;20153;-75
2022/11/22 02:00:08;;;;;;;6.57;4.18;;;;;;;;;;10473422;28;20127;-75
2022/11/22 02:05:17;;;;;;;5.07;4.15;;;;;;;;;;10460570;28;20044;-74
2022/11/22 02:10:17;;;;;;;6.53;4.30;;;;;;;;;;10465550;28;20148;-76
2022/11/22 02:15:18;;;;;;;5.13;4.03;;;;;;;;;;10456993;28;20558;-75
2022/11/22 02:20:18;;;;;;;5.97;4.20;;;;;;;;;;10480979;28;20032;-75
2022/11/22 02:25:18;;;;;;;6.60;5.33;;;;;;;;;;10479439;28;20283;-74
2022/11/22 02:30:19;;;;;;;5.50;3.67;;;;;;;;;;10480998;28;20112;-73
2022/11/22 02:35:20;;;;;;;5.18;4.50;;;;;;;;;;10482522;28;20083;-76
2022/11/22 02:40:21;;;;;;;6.18;4.35;;;;;;;;;;10469389;28;20041;-76
2022/11/22 02:45:22;;;;;;;6.57;4.10;;;;;;;;;;10471883;28;20047;-79
2022/11/22 02:50:22;;;;;;;5.30;4.00;;;;;;;;;;10469315;28;20582;-74
2022/11/22 02:55:23;;;;;;;5.07;4.13;;;;;;;;;;10473430;28;20063;-76
2022/11/22 03:00:23;;;;;;;5.90;4.43;;;;;;;;;;10494643;28;20523;-76
2022/11/22 03:05:24;;;;;;;6.15;3.97;;;;;;;;;;10481288;28;20310;-74
2022/11/22 03:10:24;;;;;;;5.70;3.60;;;;;;;;;;10468829;28;20376;-75
2022/11/22 03:15:24;;;;;;;5.07;3.22;;;;;;;;;;10479243;28;20313;-75
2022/11/22 03:20:25;;;;;;;4.97;3.58;;;;;;;;;;10466949;28;20040;-75
2022/11/22 03:25:26;;;;;;;3.63;3.20;;;;;;;;;;10482725;28;20051;-75
2022/11/22 03:30:26;;;;;;;5.70;4.18;;;;;;;;;;10477228;28;20051;-75
2022/11/22 03:35:27;;;;;;;6.35;3.53;;;;;;;;;;10480940;28;20064;-75
2022/11/22 03:40:27;;;;;;;5.68;3.30;;;;;;;;;;10490176;28;20468;-76
2022/11/22 03:45:28;;;;;;;4.85;3.50;;;;;;;;;;10478596;28;20041;-74
2022/11/22 03:50:30;;;;;;;5.30;3.38;;;;;;;;;;10484235;28;20459;-76
2022/11/22 03:55:30;;;;;;;4.70;3.38;;;;;;;;;;10466744;28;20047;-75
2022/11/22 04:00:31;;;;;;;4.90;3.47;;;;;;;;;;10487834;28;20036;-75
2022/11/22 04:05:31;;;;;;;4.50;2.90;;;;;;;;;;10480584;28;20377;-74
2022/11/22 04:10:31;;;;;;;5.25;3.30;;;;;;;;;;10480842;28;20033;-74
2022/11/22 04:15:32;;;;;;;5.73;3.53;;;;;;;;;;10472472;28;20378;-76
2022/11/22 04:25:53;;;;;;;4.80;3.80;;;;;;;;;;10487227;28;20063;-76
2022/11/22 04:36:12;;;;;;;5.13;3.40;;;;;;;;;;10477002;28;20052;-74
2022/11/22 04:41:12;;;;;;;5.00;3.10;;;;;;;;;;10463100;28;20392;-76
2022/11/22 04:46:13;;;;;;;4.60;3.30;;;;;;;;;;10469131;28;20048;-75
2022/11/22 04:56:33;;;;;;;6.68;3.25;;;;;;;;;;10484668;28;20044;-76
2022/11/22 05:01:33;;;;;;;4.70;3.00;;;;;;;;;;10482227;28;20107;-76
2022/11/22 05:06:33;;;;;;;6.43;3.97;;;;;;;;;;10482529;28;20289;-77
2022/11/22 05:11:34;;;;;;;4.15;3.22;;;;;;;;;;10463306;28;20378;-76
2022/11/22 05:16:34;;;;;;;4.22;2.97;;;;;;;;;;10479257;28;20044;-75
2022/11/22 05:21:36;;;;;;;5.88;3.80;;;;;;;;;;10485068;28;20102;-76
2022/11/22 05:26:36;;;;;;;5.57;3.58;;;;;;;;;;10487646;28;20041;-76
2022/11/22 05:31:37;;;;;;;5.15;3.67;;;;;;;;;;10488256;28;20040;-75
2022/11/22 05:36:37;;;;;;;6.18;3.30;;;;;;;;;;10477989;28;20151;-75
2022/11/22 05:41:38;;;;;;;7.10;4.00;;;;;;;;;;10462273;28;20040;-77
2022/11/22 05:46:38;;;;;;;4.73;3.33;;;;;;;;;;10483942;28;20275;-76
2022/11/22 05:51:39;;;;;;;4.33;3.73;;;;;;;;;;10465910;28;20123;-75
2022/11/22 05:56:39;;;;;;;7.55;4.53;;;;;;;;;;10485352;28;20322;-76
2022/11/22 06:01:39;;;;;;;7.97;4.93;;;;;;;;;;10456877;28;20041;-77
2022/11/22 06:06:40;;;;;;;5.72;3.70;;;;;;;;;;10480063;28;20430;-75
2022/11/22 06:11:40;;;;;;;10.63;3.93;;;;;;;;;;10465023;28;20123;-76
2022/11/22 06:16:40;;;;;;;6.40;4.50;;;;;;;;;;10455123;28;20279;-75
2022/11/22 06:21:41;;;;;;;11.82;7.53;;;;;;;;;;10456643;28;20071;-76
2022/11/22 06:26:42;;;;;;;12.43;6.38;;;;;;;;;;10474918;28;20067;-76
2022/11/22 06:31:42;;;;;;;8.38;5.40;;;;;;;;;;10477611;28;20111;-74
2022/11/22 06:36:42;;;;;;;7.47;5.00;;;;;;;;;;10473383;28;20040;-74
2022/11/22 06:41:43;;;;;;;9.82;5.65;;;;;;;;;;10474050;28;20089;-76
2022/11/22 06:46:43;;;;;;;8.27;5.05;;;;;;;;;;10484328;28;20036;-76
2022/11/22 06:51:44;;;;;;;7.18;5.00;;;;;;;;;;10484969;28;20172;-76
2022/11/22 06:56:44;;;;;;;9.60;6.05;;;;;;;;;;10476708;28;20032;-76
2022/11/22 07:01:44;;;;;;;6.77;5.17;;;;;;;;;;10460614;28;20052;-76
2022/11/22 07:06:45;;;;;;;6.88;4.75;;;;;;;;;;10484293;28;20361;-75
2022/11/22 07:11:46;;;;;;;7.05;4.25;;;;;;;;;;10488203;28;20392;-74
2022/11/22 07:16:46;;;;;;;6.90;4.68;;;;;;;;;;10485948;28;20038;-75
2022/11/22 07:21:48;;;;;;;8.10;5.47;;;;;;;;;;10476505;28;20749;-77
2022/11/22 07:26:48;;;;;;;8.73;5.05;;;;;;;;;;10487625;28;20044;-75
2022/11/22 07:31:49;;;;;;;7.20;4.83;;;;;;;;;;10489900;28;20052;-75
2022/11/22 07:36:49;;;;;;;6.47;5.00;;;;;;;;;;10486890;28;20312;-76
2022/11/22 07:41:49;;;;;;;6.10;4.97;;;;;;;;;;10488119;28;20305;-75
2022/11/22 07:46:51;;;;;;;8.70;4.78;;;;;;;;;;10471667;28;20303;-76
2022/11/22 07:51:52;;;;;;;6.45;4.57;;;;;;;;;;10482361;28;20048;-75
2022/11/22 07:56:52;;;;;;;6.18;4.88;;;;;;;;;;10482867;28;20086;-78
2022/11/22 08:01:53;;;;;;;7.00;4.88;;;;;;;;;;10474667;28;20028;-76
2022/11/22 08:06:53;;;;;;;8.90;5.07;;;;;;;;;;10483807;28;20025;-75
2022/11/22 08:11:54;;;;;;;9.23;6.03;;;;;;;;;;10479878;28;20477;-76
2022/11/22 08:16:54;;;;;;;8.48;5.30;;;;;;;;;;10475630;28;21135;-75
2022/11/22 08:21:54;;;;;;;9.52;5.43;;;;;;;;;;10488120;28;20400;-76
2022/11/22 08:26:55;;;;;;;10.02;5.78;;;;;;;;;;10492254;28;20047;-77
2022/11/22 08:31:55;;;;;;;9.27;5.43;;;;;;;;;;10472684;28;20045;-74
2022/11/22 08:36:55;;;;;;;9.40;6.33;;;;;;;;;;10481740;28;20136;-75
2022/11/22 08:41:56;;;;;;;5.93;4.57;;;;;;;;;;10467079;28;20283;-77
2022/11/22 08:46:56;;;;;;;8.87;5.20;;;;;;;;;;10484372;28;20287;-76
2022/11/22 08:51:56;;;;;;;8.93;4.80;;;;;;;;;;10465359;28;20302;-76
2022/11/22 08:56:57;;;;;;;10.47;4.97;;;;;;;;;;10463074;28;20299;-74
2022/11/22 09:01:57;;;;;;;7.60;5.20;;;;;;;;;;10481792;28;20299;-80
2022/11/22 09:06:59;;;;;;;11.98;4.60;;;;;;;;;;10477274;28;20095;-76
2022/11/22 09:11:59;;;;;;;7.22;4.05;;;;;;;;;;10477541;28;20079;-74
2022/11/22 09:17:00;;;;;;;6.57;4.15;;;;;;;;;;10474948;28;20127;-74
2022/11/22 09:22:00;;;;;;;7.50;4.00;;;;;;;;;;10479832;28;20036;-76
2022/11/22 09:27:00;;;;;;;9.73;4.07;;;;;;;;;;10470696;28;20041;-76
2022/11/22 09:32:02;;;;;;;9.60;3.70;;;;;;;;;;10485455;28;20493;-76
2022/11/22 09:37:02;;;;;;;7.95;3.58;;;;;;;;;;10470891;28;20358;-75
2022/11/22 09:42:09;;;;;;;6.75;4.05;;;;;;;;;;10471859;28;20492;-78
2022/11/22 09:47:09;;;;;;;10.40;3.58;;;;;;;;;;10481043;28;20120;-76
2022/11/22 09:52:16;;;;;;;8.83;3.53;;;;;;;;;;10487212;28;20044;-75
2022/11/22 09:57:27;;;;;;;5.38;2.92;;;;;;;;;;10470263;28;20040;-75
2022/11/22 10:02:36;;;;;;;7.97;3.25;;;;;;;;;;10465562;28;20033;-77
2022/11/22 10:07:39;;;;;;;10.40;3.92;;;;;;;;;;10476356;28;20044;-75
2022/11/22 10:12:44;;;;;;;8.13;3.33;;;;;;;;;;10478120;28;20033;-77
2022/11/22 10:17:50;;;;;;;8.43;3.13;;;;;;;;;;10476382;28;20045;-74
2022/11/22 10:22:51;;;;;;;5.97;2.55;;;;;;;;;;10475298;28;20087;-75
2022/11/22 10:27:59;;;;;;;9.32;2.30;;;;;;;;;;10452409;28;20575;-75
2022/11/22 10:33:08;;;;;;;9.55;3.00;;;;;;;;;;10462972;28;20055;-77
2022/11/22 10:38:28;;;;;;;8.40;2.10;;;;;;;;;;10485576;28;20456;-75
2022/11/22 10:43:51;;;;;;;7.30;2.10;;;;;;;;;;10465850;28;20040;-76
2022/11/22 10:48:55;;;;;;;5.60;1.97;;;;;;;;;;10459080;28;20088;-75
2022/11/22 10:53:55;;;;;;;;;;;;;;;;;;10480388;28;20136;-76
2022/11/22 10:59:02;;;;;;;5.50;2.00;;;;;;;;;;10480125;28;19921;-75
2022/11/22 11:04:02;;;;;;;6.13;2.05;;;;;;;;;;10477283;28;20029;-77
2022/11/22 11:09:07;;;;;;;6.93;1.80;;;;;;;;;;10482477;28;20097;-78
2022/11/22 11:14:31;;;;;;;7.68;1.90;;;;;;;;;;10466419;28;20052;-78
2022/11/22 11:19:36;;;;;;;4.83;1.90;;;;;;;;;;10460524;28;20436;-77
2022/11/22 11:24:38;;;;;;;4.72;1.80;;;;;;;;;;10476852;28;20061;-78
2022/11/22 11:29:41;;;;;;;4.22;1.55;;;;;;;;;;10454816;28;20029;-77
2022/11/22 11:34:50;;;;;;;7.28;1.77;;;;;;;;;;10476530;28;20041;-76
2022/11/22 11:39:51;;;;;;;4.25;1.58;;;;;;;;;;10482434;28;20036;-76
2022/11/22 11:44:51;;;;;;;7.65;2.03;;;;;;;;;;10463343;28;20040;-77
2022/11/22 11:49:52;;;;;;;6.30;1.80;;;;;;;;;;10468919;28;20045;-77
2022/11/22 11:54:54;;;;;;;7.35;2.13;;;;;;;;;;10476081;28;20829;-77
2022/11/22 11:59:55;;;;;;;7.18;1.80;;;;;;;;;;10482270;28;20522;-79
2022/11/22 12:05:03;;;;;;;3.90;1.67;;;;;;;;;;10491283;28;20044;-76
2022/11/22 12:10:22;;;;;;;6.05;1.73;;;;;;;;;;10484234;28;20575;-77
2022/11/22 12:15:31;;;;;;;4.65;1.50;;;;;;;;;;10480056;28;20558;-79
2022/11/22 12:20:45;;;;;;;7.60;1.60;;;;;;;;;;10485841;28;20446;-77
2022/11/22 12:25:46;;;;;;;6.88;1.80;;;;;;;;;;10499171;28;20043;-77
2022/11/22 12:30:54;;;;;;;2.53;1.42;;;;;;;;;;10523217;28;20060;-77
2022/11/22 12:35:55;;;;;;;3.40;1.52;;;;;;;;;;10492026;28;20033;-77
2022/11/22 12:40:57;;;;;;;4.30;1.48;;;;;;;;;;10480969;28;20096;-76
2022/11/22 12:45:59;;;;;;;3.35;1.63;;;;;;;;;;10487755;28;20029;-76
2022/11/22 12:51:11;;;;;;;5.90;1.87;;;;;;;;;;10463632;28;20048;-76
2022/11/22 12:56:28;;;;;;;5.50;1.95;;;;;;;;;;10476457;28;20888;-78
2022/11/22 13:01:32;;;;;;;3.22;1.33;;;;;;;;;;10484864;28;20028;-77
2022/11/22 13:06:44;;;;;;;7.35;1.90;;;;;;;;;;10505656;28;20083;-77
2022/11/22 13:12:03;;;;;;;5.07;1.65;;;;;;;;;;10504772;28;20051;-76
2022/11/22 13:17:12;;;;;;;6.88;2.22;;;;;;;;;;10487809;28;20482;-77
2022/11/22 13:22:49;;;;;;;3.88;1.80;;;;;;;;;;10483502;28;20029;-81
2022/11/22 13:27:50;;;;;;;7.15;1.95;;;;;;;;;;10467966;28;20045;-77
2022/11/22 13:32:52;;;;;;;4.50;1.50;;;;;;;;;;10529678;28;20053;-78
2022/11/22 13:37:54;;;;;;;3.92;1.88;;;;;;;;;;10512742;28;20117;-78
2022/11/22 13:43:13;;;;;;;6.13;2.50;;;;;;;;;;10456180;28;20047;-79
2022/11/22 13:48:33;;;;;;;4.72;2.00;;;;;;;;;;10469544;28;20042;-77
2022/11/22 13:53:35;;;;;;;6.50;2.10;;;;;;;;;;10479386;28;20466;-77
2022/11/22 13:58:39;;;;;;;5.20;2.00;;;;;;;;;;10483918;28;20051;-77
2022/11/22 14:03:39;;;;;;;;;;;;;;;;;;10486619;28;20024;-77
2022/11/22 14:08:40;;;;;;;5.97;2.00;;;;;;;;;;10484361;28;21060;-78
2022/11/22 14:13:42;;;;;;;4.38;1.65;;;;;;;;;;10509934;28;20566;-80
2022/11/22 14:19:01;;;;;;;5.43;2.03;;;;;;;;;;10476356;28;20071;-78
2022/11/22 14:24:14;;;;;;;4.32;2.63;;;;;;;;;;10499648;28;20044;-79
2022/11/22 14:29:17;;;;;;;5.88;2.75;;;;;;;;;;10487258;28;20037;-78
2022/11/22 14:34:25;;;;;;;6.82;3.22;;;;;;;;;;10490394;28;20630;-77
2022/11/22 14:39:44;;;;;;;6.18;3.20;;;;;;;;;;10460961;28;20036;-78
2022/11/22 14:44:45;;;;;;;6.82;2.72;;;;;;;;;;10473559;28;20040;-79
2022/11/22 14:49:47;;;;;;;6.25;2.80;;;;;;;;;;10456107;28;20148;-79
2022/11/22 14:54:49;;;;;;;4.28;2.40;;;;;;;;;;10464087;28;20041;-77
2022/11/22 15:00:08;;;;;;;5.47;2.90;;;;;;;;;;10484279;28;20099;-77
2022/11/22 15:05:09;;;;;;;8.48;3.03;;;;;;;;;;10462231;28;20082;-79
2022/11/22 15:10:12;;;;;;;7.57;3.23;;;;;;;;;;10461986;28;20548;-78
2022/11/22 15:15:12;;;;;;;;;;;;;;;;;;10463502;28;20313;-79
2022/11/22 15:20:32;;;;;;;6.43;2.75;;;;;;;;;;10467584;28;20642;-79
2022/11/22 15:25:32;;;;;;;6.30;2.35;;;;;;;;;;10458292;28;20419;-80
2022/11/22 15:30:34;;;;;;;7.72;3.20;;;;;;;;;;10486543;28;20033;-78
2022/11/22 15:35:43;;;;;;;10.18;3.78;;;;;;;;;;10507017;28;20051;-79
2022/11/22 15:40:49;;;;;;;9.02;4.30;;;;;;;;;;10489266;28;20039;-78
2022/11/22 15:45:51;;;;;;;9.05;5.93;;;;;;;;;;10494620;28;20140;-79
2022/11/22 15:51:12;;;;;;;10.48;5.05;;;;;;;;;;10482858;28;20040;-79
2022/11/22 15:56:17;;;;;;;8.23;4.18;;;;;;;;;;10473982;28;20037;-80
2022/11/22 16:01:18;;;;;;;8.55;4.35;;;;;;;;;;10486181;28;20056;-78
2022/11/22 16:06:21;;;;;;;9.75;5.45;;;;;;;;;;10508559;28;20047;-78
2022/11/22 16:11:25;;;;;;;13.35;7.72;;;;;;;;;;10501269;28;20045;-81
2022/11/22 16:16:26;;;;;;;11.15;6.88;;;;;;;;;;10498375;28;20041;-77
2022/11/22 16:21:28;;;;;;;8.70;5.05;;;;;;;;;;10486724;28;20063;-79
2022/11/22 16:26:28;;;;;;;12.30;4.40;;;;;;;;;;10490167;28;20075;-79
2022/11/22 16:31:30;;;;;;;10.07;4.60;;;;;;;;;;10508351;28;20058;-78
2022/11/22 16:36:30;;;;;;;8.20;4.10;;;;;;;;;;10445250;28;20040;-76
2022/11/22 16:41:32;;;;;;;6.28;4.15;;;;;;;;;;10482004;28;20052;-76
2022/11/22 16:46:33;;;;;;;9.00;4.88;;;;;;;;;;10490429;28;20449;-78
2022/11/22 16:51:33;;;;;;;8.70;4.10;;;;;;;;;;10495605;28;20041;-79
2022/11/22 16:56:33;;;;;;;10.13;4.80;;;;;;;;;;10474462;28;20044;-77
2022/11/22 17:01:34;;;;;;;8.15;5.03;;;;;;;;;;10462209;28;20297;-77
2022/11/22 17:06:34;;;;;;;13.63;5.07;;;;;;;;;;10468317;28;20028;-81
2022/11/22 17:11:35;;;;;;;9.30;5.50;;;;;;;;;;10495769;28;20595;-78
2022/11/22 17:16:35;;;;;;;6.67;4.60;;;;;;;;;;10469137;28;20028;-78
2022/11/22 17:21:36;;;;;;;9.27;5.20;;;;;;;;;;10470061;28;20330;-77
2022/11/22 17:26:36;;;;;;;9.70;5.47;;;;;;;;;;10490610;28;20056;-80
2022/11/22 17:31:37;;;;;;;7.78;5.13;;;;;;;;;;10493005;28;20487;-79
2022/11/22 17:36:37;;;;;;;11.70;6.32;;;;;;;;;;10475504;28;20625;-78
2022/11/22 17:41:38;;;;;;;8.50;5.07;;;;;;;;;;10494355;28;20033;-79
2022/11/22 17:46:38;;;;;;;10.98;5.47;;;;;;;;;;10501250;28;20024;-78
2022/11/22 17:51:39;;;;;;;9.75;5.38;;;;;;;;;;10520254;28;20076;-79
2022/11/22 17:56:39;;;;;;;14.02;7.53;;;;;;;;;;10481812;28;20070;-77
2022/11/22 18:01:40;;;;;;;16.60;8.17;;;;;;;;;;10470466;28;20050;-79
2022/11/22 18:06:40;;;;;;;15.45;9.27;;;;;;;;;;10487525;28;20290;-79
2022/11/22 18:11:40;;;;;;;14.43;8.18;;;;;;;;;;10466984;28;20098;-78
2022/11/22 18:16:41;;;;;;;12.17;7.47;;;;;;;;;;10469469;28;20065;-77
2022/11/22 18:21:41;;;;;;;14.77;7.90;;;;;;;;;;10490049;28;20290;-77
2022/11/22 18:26:42;;;;;;;12.85;6.85;;;;;;;;;;10491957;28;20289;-78
2022/11/22 18:31:45;;;;;;;10.93;6.80;;;;;;;;;;10468114;28;20048;-78
2022/11/22 18:36:45;;;;;;;10.93;6.05;;;;;;;;;;10467833;28;20439;-78
2022/11/22 18:41:46;;;;;;;10.45;6.25;;;;;;;;;;10489749;28;20045;-78
2022/11/22 18:46:46;;;;;;;14.30;7.03;;;;;;;;;;10488394;28;20132;-77
2022/11/22 18:51:47;;;;;;;15.25;6.70;;;;;;;;;;10484548;28;20032;-78
2022/11/22 18:56:48;;;;;;;11.02;7.00;;;;;;;;;;10473727;28;20068;-76
2022/11/22 19:01:48;;;;;;;10.23;7.40;;;;;;;;;;10481921;28;20098;-79
2022/11/22 19:06:48;;;;;;;10.43;7.03;;;;;;;;;;10499480;28;20028;-79
2022/11/22 19:11:51;;;;;;;11.77;7.85;;;;;;;;;;10472568;28;21060;-77
2022/11/22 19:16:51;;;;;;;14.23;7.70;;;;;;;;;;10500907;28;20102;-78
2022/11/22 19:21:52;;;;;;;14.60;8.48;;;;;;;;;;10505137;28;20139;-77
2022/11/22 19:26:52;;;;;;;12.20;7.53;;;;;;;;;;10493400;28;20119;-80
2022/11/22 19:31:53;;;;;;;12.32;7.55;;;;;;;;;;10481685;28;20040;-78
2022/11/22 19:36:53;;;;;;;13.93;7.10;;;;;;;;;;10495978;28;20028;-79
2022/11/22 19:41:53;;;;;;;11.27;7.63;;;;;;;;;;10498729;28;20353;-78
2022/11/22 19:46:54;;;;;;;15.98;8.63;;;;;;;;;;10483641;28;20106;-78
2022/11/22 19:51:54;;;;;;;13.07;8.30;;;;;;;;;;10500342;28;20045;-79
2022/11/22 19:56:55;;;;;;;15.88;8.95;;;;;;;;;;10485355;28;20045;-78
2022/11/22 20:01:55;;;;;;;16.17;8.43;;;;;;;;;;10486921;28;20522;-81
2022/11/22 20:06:58;;;;;;;14.50;8.60;;;;;;;;;;10512907;28;20321;-77
2022/11/22 20:11:59;;;;;;;14.13;8.20;;;;;;;;;;10500825;28;20737;-77
2022/11/22 20:16:59;;;;;;;15.93;8.27;;;;;;;;;;10483960;28;20085;-77
2022/11/22 20:21:59;;;;;;;12.10;8.40;;;;;;;;;;10500778;28;20063;-75
2022/11/22 20:27:01;;;;;;;13.20;9.02;;;;;;;;;;10486855;28;20488;-76
2022/11/22 20:32:02;;;;;;;14.10;9.23;;;;;;;;;;10506978;28;20044;-78
2022/11/22 20:37:02;;;;;;;14.38;8.80;;;;;;;;;;10493652;28;20056;-78
2022/11/22 20:42:03;;;;;;;15.05;9.48;;;;;;;;;;10493211;28;20060;-76
2022/11/22 20:47:03;;;;;;;17.00;9.05;;;;;;;;;;10491719;28;20062;-77
2022/11/22 20:52:04;;;;;;;16.90;9.40;;;;;;;;;;10502665;28;20048;-77
2022/11/22 20:57:04;;;;;;;13.50;8.98;;;;;;;;;;10516172;28;20033;-78
2022/11/22 21:02:05;;;;;;;19.63;9.40;;;;;;;;;;10519308;28;20021;-77
2022/11/22 21:07:05;;;;;;;15.23;9.02;;;;;;;;;;10502652;28;20131;-78
2022/11/22 21:12:06;;;;;;;14.95;9.00;;;;;;;;;;10501684;28;20033;-77
2022/11/22 21:17:06;;;;;;;14.45;9.65;;;;;;;;;;10493163;28;20044;-77
2022/11/22 21:22:06;;;;;;;13.77;7.97;;;;;;;;;;10485898;28;20043;-75
2022/11/22 21:27:07;;;;;;;13.47;8.53;;;;;;;;;;10488802;28;20208;-77
2022/11/22 21:32:07;;;;;;;13.82;8.60;;;;;;;;;;10490355;28;20036;-76
2022/11/22 21:37:07;;;;;;;13.07;7.87;;;;;;;;;;10476412;28;20032;-77
2022/11/22 21:42:08;;;;;;;12.35;8.07;;;;;;;;;;10473444;28;20032;-76
2022/11/22 21:47:08;;;;;;;11.43;7.20;;;;;;;;;;10463811;28;20037;-76
2022/11/22 21:52:10;;;;;;;9.68;6.70;;;;;;;;;;10482992;28;20050;-76
2022/11/22 21:57:10;;;;;;;8.97;5.90;;;;;;;;;;10472953;28;20464;-76
2022/11/22 22:02:11;;;;;;;9.70;6.47;;;;;;;;;;10465572;28;20286;-77
2022/11/22 22:07:11;;;;;;;12.03;6.77;;;;;;;;;;10477374;28;20322;-77
2022/11/22 22:12:11;;;;;;;9.63;6.07;;;;;;;;;;10467663;28;20307;-77
2022/11/22 22:17:12;;;;;;;8.40;6.20;;;;;;;;;;10466687;28;21084;-77
2022/11/22 22:22:12;;;;;;;12.13;6.67;;;;;;;;;;10485234;28;20786;-77
2022/11/22 22:27:12;;;;;;;10.93;6.17;;;;;;;;;;10463646;28;20806;-77
2022/11/22 22:32:13;;;;;;;11.67;6.60;;;;;;;;;;10484529;28;20076;-76
2022/11/22 22:37:13;;;;;;;9.37;6.10;;;;;;;;;;10485548;28;20290;-77
2022/11/22 22:42:14;;;;;;;11.00;6.57;;;;;;;;;;10503211;28;20298;-76
2022/11/22 22:47:14;;;;;;;11.88;6.60;;;;;;;;;;10491216;28;20052;-76
2022/11/22 22:52:14;;;;;;;10.85;6.85;;;;;;;;;;10479113;28;20048;-77
2022/11/22 22:57:15;;;;;;;9.83;6.23;;;;;;;;;;10469233;28;20033;-77
2022/11/22 23:02:15;;;;;;;12.70;6.38;;;;;;;;;;10482003;28;20032;-76
2022/11/22 23:07:15;;;;;;;12.82;6.38;;;;;;;;;;10486593;28;20035;-78
2022/11/22 23:12:16;;;;;;;9.50;6.23;;;;;;;;;;10457269;28;20048;-77
2022/11/22 23:17:16;;;;;;;10.20;6.03;;;;;;;;;;10476500;28;20302;-77
2022/11/22 23:22:17;;;;;;;10.20;5.50;;;;;;;;;;10487944;28;20816;-76
2022/11/22 23:27:17;;;;;;;10.02;6.28;;;;;;;;;;10489641;28;20910;-76
2022/11/22 23:32:17;;;;;;;10.65;6.40;;;;;;;;;;10476207;28;20067;-77
2022/11/22 23:37:18;;;;;;;10.77;6.23;;;;;;;;;;10488351;28;20060;-77
2022/11/22 23:42:18;;;;;;;10.53;6.40;;;;;;;;;;10482707;28;20291;-77
2022/11/22 23:47:18;;;;;;;9.40;6.47;;;;;;;;;;10464760;28;20330;-78
2022/11/22 23:52:19;;;;;;;10.40;6.10;;;;;;;;;;10479711;28;20040;-77
2022/11/22 23:57:19;;;;;;;9.13;6.20;;;;;;;;;;10474772;28;20033;-76
